sensor_id;sensor_type;location;lat;lon;timestamp;P1;durP1;ratioP1;P2;durP2;ratioP2
15132;SDS011;7667;51.232;17.110;2023-08-12T00:00:20;6.00;;;5.50;;
15132;SDS011;7667;51.232;17.110;2023-08-12T00:02:48;7.27;;;5.97;;
15132;SDS011;7667;51.232;17.110;2023-08-12T00:05:16;9.30;;;7.60;;
15132;SDS011;7667;51.232;17.110;2023-08-12T00:07:43;11.17;;;9.93;;
15132;SDS011;7667;51.232;17.110;2023-08-12T00:10:11;10.20;;;8.80;;
15132;SDS011;7667;51.232;17.110;2023-08-12T00:12:39;9.53;;;8.53;;
15132;SDS011;7667;51.232;17.110;2023-08-12T00:15:07;9.03;;;8.20;;
15132;SDS011;7667;51.232;17.110;2023-08-12T00:17:37;9.40;;;7.73;;
15132;SDS011;7667;51.232;17.110;2023-08-12T00:20:09;7.00;;;6.40;;
15132;SDS011;7667;51.232;17.110;2023-08-12T00:22:39;6.87;;;6.23;;
15132;SDS011;7667;51.232;17.110;2023-08-12T00:25:08;6.53;;;5.90;;
15132;SDS011;7667;51.232;17.110;2023-08-12T00:27:36;7.10;;;6.20;;
15132;SDS011;7667;51.232;17.110;2023-08-12T00:30:04;6.00;;;5.40;;
15132;SDS011;7667;51.232;17.110;2023-08-12T00:32:33;8.37;;;7.57;;
15132;SDS011;7667;51.232;17.110;2023-08-12T00:35:01;9.33;;;7.50;;
15132;SDS011;7667;51.232;17.110;2023-08-12T00:37:29;7.00;;;6.30;;
15132;SDS011;7667;51.232;17.110;2023-08-12T00:39:57;6.67;;;5.97;;
15132;SDS011;7667;51.232;17.110;2023-08-12T00:42:25;8.53;;;6.93;;
15132;SDS011;7667;51.232;17.110;2023-08-12T00:44:52;9.50;;;7.33;;
15132;SDS011;7667;51.232;17.110;2023-08-12T00:47:20;8.17;;;7.20;;
15132;SDS011;7667;51.232;17.110;2023-08-12T00:49:48;7.53;;;6.77;;
15132;SDS011;7667;51.232;17.110;2023-08-12T00:52:16;8.70;;;7.90;;
15132;SDS011;7667;51.232;17.110;2023-08-12T00:54:45;11.50;;;9.23;;
15132;SDS011;7667;51.232;17.110;2023-08-12T00:57:13;10.87;;;8.80;;
15132;SDS011;7667;51.232;17.110;2023-08-12T00:59:41;9.37;;;7.53;;
15132;SDS011;7667;51.232;17.110;2023-08-12T01:02:11;8.00;;;6.87;;
15132;SDS011;7667;51.232;17.110;2023-08-12T01:04:39;8.13;;;7.33;;
15132;SDS011;7667;51.232;17.110;2023-08-12T01:07:07;7.97;;;7.17;;
15132;SDS011;7667;51.232;17.110;2023-08-12T01:09:36;12.77;;;7.53;;
15132;SDS011;7667;51.232;17.110;2023-08-12T01:17:36;6.80;;;6.10;;
15132;SDS011;7667;51.232;17.110;2023-08-12T01:20:07;6.83;;;5.97;;
15132;SDS011;7667;51.232;17.110;2023-08-12T01:22:37;6.43;;;5.83;;
15132;SDS011;7667;51.232;17.110;2023-08-12T01:25:09;6.80;;;6.10;;
15132;SDS011;7667;51.232;17.110;2023-08-12T01:27:37;7.47;;;6.73;;
15132;SDS011;7667;51.232;17.110;2023-08-12T01:30:05;8.50;;;6.57;;
15132;SDS011;7667;51.232;17.110;2023-08-12T01:35:17;6.90;;;6.23;;
15132;SDS011;7667;51.232;17.110;2023-08-12T01:37:51;7.50;;;6.60;;
15132;SDS011;7667;51.232;17.110;2023-08-12T01:40:22;6.97;;;6.27;;
15132;SDS011;7667;51.232;17.110;2023-08-12T01:42:51;7.37;;;6.77;;
15132;SDS011;7667;51.232;17.110;2023-08-12T01:45:19;9.23;;;8.27;;
15132;SDS011;7667;51.232;17.110;2023-08-12T01:47:47;9.03;;;8.10;;
15132;SDS011;7667;51.232;17.110;2023-08-12T01:50:17;8.37;;;7.53;;
15132;SDS011;7667;51.232;17.110;2023-08-12T01:52:46;7.80;;;7.00;;
15132;SDS011;7667;51.232;17.110;2023-08-12T01:55:13;7.77;;;6.97;;
15132;SDS011;7667;51.232;17.110;2023-08-12T01:57:41;8.33;;;7.30;;
15132;SDS011;7667;51.232;17.110;2023-08-12T02:00:09;8.47;;;7.07;;
15132;SDS011;7667;51.232;17.110;2023-08-12T02:02:36;7.70;;;6.90;;
15132;SDS011;7667;51.232;17.110;2023-08-12T02:05:04;6.77;;;6.10;;
15132;SDS011;7667;51.232;17.110;2023-08-12T02:07:32;7.70;;;6.50;;
15132;SDS011;7667;51.232;17.110;2023-08-12T02:10:00;7.83;;;7.07;;
15132;SDS011;7667;51.232;17.110;2023-08-12T02:12:27;9.00;;;6.73;;
15132;SDS011;7667;51.232;17.110;2023-08-12T02:14:55;7.13;;;6.43;;
15132;SDS011;7667;51.232;17.110;2023-08-12T02:17:23;6.97;;;6.20;;
15132;SDS011;7667;51.232;17.110;2023-08-12T02:19:51;7.17;;;6.43;;
15132;SDS011;7667;51.232;17.110;2023-08-12T02:22:18;8.07;;;6.37;;
15132;SDS011;7667;51.232;17.110;2023-08-12T02:24:46;8.93;;;6.27;;
15132;SDS011;7667;51.232;17.110;2023-08-12T02:27:13;6.23;;;5.67;;
15132;SDS011;7667;51.232;17.110;2023-08-12T02:29:41;6.53;;;5.90;;
15132;SDS011;7667;51.232;17.110;2023-08-12T02:32:09;7.53;;;5.93;;
15132;SDS011;7667;51.232;17.110;2023-08-12T02:34:36;7.73;;;6.63;;
15132;SDS011;7667;51.232;17.110;2023-08-12T02:37:04;8.67;;;6.30;;
15132;SDS011;7667;51.232;17.110;2023-08-12T02:39:31;7.27;;;6.10;;
15132;SDS011;7667;51.232;17.110;2023-08-12T02:41:59;8.10;;;5.97;;
15132;SDS011;7667;51.232;17.110;2023-08-12T02:44:28;7.20;;;6.50;;
15132;SDS011;7667;51.232;17.110;2023-08-12T02:46:55;6.87;;;6.17;;
15132;SDS011;7667;51.232;17.110;2023-08-12T02:49:23;6.60;;;5.90;;
15132;SDS011;7667;51.232;17.110;2023-08-12T02:51:50;6.97;;;5.83;;
15132;SDS011;7667;51.232;17.110;2023-08-12T02:54:18;6.70;;;6.00;;
15132;SDS011;7667;51.232;17.110;2023-08-12T02:56:46;7.27;;;6.50;;
15132;SDS011;7667;51.232;17.110;2023-08-12T02:59:13;7.77;;;6.90;;
15132;SDS011;7667;51.232;17.110;2023-08-12T03:01:41;7.23;;;6.47;;
15132;SDS011;7667;51.232;17.110;2023-08-12T03:04:09;6.40;;;5.63;;
15132;SDS011;7667;51.232;17.110;2023-08-12T03:06:37;6.97;;;6.03;;
15132;SDS011;7667;51.232;17.110;2023-08-12T03:09:05;6.93;;;6.23;;
15132;SDS011;7667;51.232;17.110;2023-08-12T03:11:33;6.90;;;6.20;;
15132;SDS011;7667;51.232;17.110;2023-08-12T03:14:00;7.30;;;6.50;;
15132;SDS011;7667;51.232;17.110;2023-08-12T03:16:28;6.43;;;5.80;;
15132;SDS011;7667;51.232;17.110;2023-08-12T03:18:56;6.40;;;5.80;;
15132;SDS011;7667;51.232;17.110;2023-08-12T03:21:23;6.33;;;5.73;;
15132;SDS011;7667;51.232;17.110;2023-08-12T03:23:51;8.50;;;5.83;;
15132;SDS011;7667;51.232;17.110;2023-08-12T03:26:19;6.20;;;5.60;;
15132;SDS011;7667;51.232;17.110;2023-08-12T03:28:47;6.80;;;5.77;;
15132;SDS011;7667;51.232;17.110;2023-08-12T03:31:14;7.77;;;6.00;;
15132;SDS011;7667;51.232;17.110;2023-08-12T03:33:42;6.83;;;5.70;;
15132;SDS011;7667;51.232;17.110;2023-08-12T03:36:10;6.10;;;5.50;;
15132;SDS011;7667;51.232;17.110;2023-08-12T03:38:38;6.40;;;5.70;;
15132;SDS011;7667;51.232;17.110;2023-08-12T03:41:05;6.60;;;6.00;;
15132;SDS011;7667;51.232;17.110;2023-08-12T03:43:33;6.27;;;5.77;;
15132;SDS011;7667;51.232;17.110;2023-08-12T03:46:01;6.73;;;5.90;;
15132;SDS011;7667;51.232;17.110;2023-08-12T03:48:28;7.23;;;5.70;;
15132;SDS011;7667;51.232;17.110;2023-08-12T03:50:56;6.80;;;6.10;;
15132;SDS011;7667;51.232;17.110;2023-08-12T03:53:24;6.50;;;5.90;;
15132;SDS011;7667;51.232;17.110;2023-08-12T03:55:51;6.00;;;5.40;;
15132;SDS011;7667;51.232;17.110;2023-08-12T03:58:19;6.03;;;5.43;;
15132;SDS011;7667;51.232;17.110;2023-08-12T04:00:47;8.27;;;5.77;;
15132;SDS011;7667;51.232;17.110;2023-08-12T04:03:14;6.50;;;5.80;;
15132;SDS011;7667;51.232;17.110;2023-08-12T04:05:49;6.23;;;5.50;;
15132;SDS011;7667;51.232;17.110;2023-08-12T04:08:20;7.37;;;5.27;;
15132;SDS011;7667;51.232;17.110;2023-08-12T04:10:50;6.40;;;5.30;;
15132;SDS011;7667;51.232;17.110;2023-08-12T04:13:18;7.90;;;5.70;;
15132;SDS011;7667;51.232;17.110;2023-08-12T04:15:49;6.20;;;5.60;;
15132;SDS011;7667;51.232;17.110;2023-08-12T04:18:17;6.80;;;5.90;;
15132;SDS011;7667;51.232;17.110;2023-08-12T04:20:46;7.17;;;5.33;;
15132;SDS011;7667;51.232;17.110;2023-08-12T04:23:15;6.10;;;5.50;;
15132;SDS011;7667;51.232;17.110;2023-08-12T04:25:44;7.23;;;5.73;;
15132;SDS011;7667;51.232;17.110;2023-08-12T04:28:15;6.93;;;5.33;;
15132;SDS011;7667;51.232;17.110;2023-08-12T04:30:44;6.10;;;5.40;;
15132;SDS011;7667;51.232;17.110;2023-08-12T04:33:14;5.93;;;5.00;;
15132;SDS011;7667;51.232;17.110;2023-08-12T04:35:41;7.03;;;5.50;;
15132;SDS011;7667;51.232;17.110;2023-08-12T04:38:09;6.50;;;5.53;;
15132;SDS011;7667;51.232;17.110;2023-08-12T04:40:40;5.67;;;5.17;;
15132;SDS011;7667;51.232;17.110;2023-08-12T04:43:09;6.10;;;5.43;;
15132;SDS011;7667;51.232;17.110;2023-08-12T04:45:37;6.20;;;5.07;;
15132;SDS011;7667;51.232;17.110;2023-08-12T04:48:05;6.17;;;5.40;;
15132;SDS011;7667;51.232;17.110;2023-08-12T04:50:35;6.33;;;5.30;;
15132;SDS011;7667;51.232;17.110;2023-08-12T04:53:03;7.63;;;5.40;;
15132;SDS011;7667;51.232;17.110;2023-08-12T04:55:32;6.17;;;5.57;;
15132;SDS011;7667;51.232;17.110;2023-08-12T04:58:01;8.73;;;5.60;;
15132;SDS011;7667;51.232;17.110;2023-08-12T05:00:29;7.20;;;5.57;;
15132;SDS011;7667;51.232;17.110;2023-08-12T05:02:57;5.60;;;5.03;;
15132;SDS011;7667;51.232;17.110;2023-08-12T05:05:26;6.80;;;5.70;;
15132;SDS011;7667;51.232;17.110;2023-08-12T05:07:54;6.17;;;5.57;;
15132;SDS011;7667;51.232;17.110;2023-08-12T05:10:21;5.97;;;5.33;;
15132;SDS011;7667;51.232;17.110;2023-08-12T05:12:49;6.40;;;5.63;;
15132;SDS011;7667;51.232;17.110;2023-08-12T05:15:19;7.33;;;5.80;;
15132;SDS011;7667;51.232;17.110;2023-08-12T05:17:47;6.80;;;5.60;;
15132;SDS011;7667;51.232;17.110;2023-08-12T05:20:14;6.77;;;5.60;;
15132;SDS011;7667;51.232;17.110;2023-08-12T05:22:42;5.37;;;4.87;;
15132;SDS011;7667;51.232;17.110;2023-08-12T05:25:10;8.80;;;5.60;;
15132;SDS011;7667;51.232;17.110;2023-08-12T05:27:37;7.47;;;5.70;;
15132;SDS011;7667;51.232;17.110;2023-08-12T05:30:05;7.10;;;5.80;;
15132;SDS011;7667;51.232;17.110;2023-08-12T05:32:34;6.97;;;5.57;;
15132;SDS011;7667;51.232;17.110;2023-08-12T05:35:01;5.60;;;5.10;;
15132;SDS011;7667;51.232;17.110;2023-08-12T05:37:29;5.57;;;4.97;;
15132;SDS011;7667;51.232;17.110;2023-08-12T05:39:57;10.17;;;5.27;;
15132;SDS011;7667;51.232;17.110;2023-08-12T05:42:25;7.53;;;5.37;;
15132;SDS011;7667;51.232;17.110;2023-08-12T05:44:53;8.50;;;5.40;;
15132;SDS011;7667;51.232;17.110;2023-08-12T05:47:20;6.70;;;5.60;;
15132;SDS011;7667;51.232;17.110;2023-08-12T05:49:48;8.63;;;5.43;;
15132;SDS011;7667;51.232;17.110;2023-08-12T05:52:16;5.33;;;4.83;;
15132;SDS011;7667;51.232;17.110;2023-08-12T05:54:43;6.67;;;4.50;;
15132;SDS011;7667;51.232;17.110;2023-08-12T05:57:11;8.47;;;5.67;;
15132;SDS011;7667;51.232;17.110;2023-08-12T05:59:39;6.20;;;4.87;;
15132;SDS011;7667;51.232;17.110;2023-08-12T06:02:06;7.77;;;4.83;;
15132;SDS011;7667;51.232;17.110;2023-08-12T06:04:34;5.37;;;4.50;;
15132;SDS011;7667;51.232;17.110;2023-08-12T06:07:02;7.50;;;5.00;;
15132;SDS011;7667;51.232;17.110;2023-08-12T06:09:29;6.10;;;5.00;;
15132;SDS011;7667;51.232;17.110;2023-08-12T06:11:57;5.00;;;4.50;;
15132;SDS011;7667;51.232;17.110;2023-08-12T06:14:24;5.97;;;4.30;;
15132;SDS011;7667;51.232;17.110;2023-08-12T06:16:52;5.57;;;4.33;;
15132;SDS011;7667;51.232;17.110;2023-08-12T06:19:24;4.87;;;4.37;;
15132;SDS011;7667;51.232;17.110;2023-08-12T06:21:52;5.00;;;4.50;;
15132;SDS011;7667;51.232;17.110;2023-08-12T06:24:19;4.80;;;4.07;;
15132;SDS011;7667;51.232;17.110;2023-08-12T06:26:47;5.40;;;4.03;;
15132;SDS011;7667;51.232;17.110;2023-08-12T06:29:15;5.03;;;4.13;;
15132;SDS011;7667;51.232;17.110;2023-08-12T06:31:42;4.07;;;3.67;;
15132;SDS011;7667;51.232;17.110;2023-08-12T06:34:10;4.20;;;3.80;;
15132;SDS011;7667;51.232;17.110;2023-08-12T06:36:38;5.57;;;3.80;;
15132;SDS011;7667;51.232;17.110;2023-08-12T06:39:05;5.00;;;3.50;;
15132;SDS011;7667;51.232;17.110;2023-08-12T06:41:33;5.90;;;3.90;;
15132;SDS011;7667;51.232;17.110;2023-08-12T06:44:01;6.75;;;3.83;;
15132;SDS011;7667;51.232;17.110;2023-08-12T06:46:30;6.72;;;3.53;;
15132;SDS011;7667;51.232;17.110;2023-08-12T06:48:58;4.60;;;3.30;;
15132;SDS011;7667;51.232;17.110;2023-08-12T06:51:26;4.88;;;3.33;;
15132;SDS011;7667;51.232;17.110;2023-08-12T06:53:54;4.50;;;3.75;;
15132;SDS011;7667;51.232;17.110;2023-08-12T06:56:21;3.67;;;2.83;;
15132;SDS011;7667;51.232;17.110;2023-08-12T06:58:49;5.20;;;2.90;;
15132;SDS011;7667;51.232;17.110;2023-08-12T07:01:17;3.53;;;2.97;;
15132;SDS011;7667;51.232;17.110;2023-08-12T07:03:44;5.25;;;3.38;;
15132;SDS011;7667;51.232;17.110;2023-08-12T07:06:12;3.25;;;2.78;;
15132;SDS011;7667;51.232;17.110;2023-08-12T07:08:40;3.78;;;3.40;;
15132;SDS011;7667;51.232;17.110;2023-08-12T07:11:08;3.42;;;3.13;;
15132;SDS011;7667;51.232;17.110;2023-08-12T07:13:35;3.15;;;2.75;;
15132;SDS011;7667;51.232;17.110;2023-08-12T07:16:03;4.07;;;3.00;;
15132;SDS011;7667;51.232;17.110;2023-08-12T07:18:31;4.03;;;3.00;;
15132;SDS011;7667;51.232;17.110;2023-08-12T07:20:58;5.55;;;2.72;;
15132;SDS011;7667;51.232;17.110;2023-08-12T07:23:26;3.03;;;2.72;;
15132;SDS011;7667;51.232;17.110;2023-08-12T07:25:54;6.25;;;2.65;;
15132;SDS011;7667;51.232;17.110;2023-08-12T07:28:22;2.80;;;2.60;;
15132;SDS011;7667;51.232;17.110;2023-08-12T07:30:49;4.55;;;2.67;;
15132;SDS011;7667;51.232;17.110;2023-08-12T07:33:19;3.63;;;2.60;;
15132;SDS011;7667;51.232;17.110;2023-08-12T07:35:48;3.03;;;2.60;;
15132;SDS011;7667;51.232;17.110;2023-08-12T07:38:16;2.90;;;2.65;;
15132;SDS011;7667;51.232;17.110;2023-08-12T07:40:43;4.88;;;2.38;;
15132;SDS011;7667;51.232;17.110;2023-08-12T07:43:11;4.63;;;2.85;;
15132;SDS011;7667;51.232;17.110;2023-08-12T07:45:39;3.67;;;2.78;;
15132;SDS011;7667;51.232;17.110;2023-08-12T07:48:06;3.92;;;2.63;;
15132;SDS011;7667;51.232;17.110;2023-08-12T07:50:34;3.40;;;2.60;;
15132;SDS011;7667;51.232;17.110;2023-08-12T07:53:02;4.05;;;2.80;;
15132;SDS011;7667;51.232;17.110;2023-08-12T07:55:30;4.47;;;2.92;;
15132;SDS011;7667;51.232;17.110;2023-08-12T07:57:58;3.83;;;2.70;;
15132;SDS011;7667;51.232;17.110;2023-08-12T08:00:26;3.10;;;2.80;;
15132;SDS011;7667;51.232;17.110;2023-08-12T08:02:53;3.85;;;2.53;;
15132;SDS011;7667;51.232;17.110;2023-08-12T08:05:21;3.78;;;3.00;;
15132;SDS011;7667;51.232;17.110;2023-08-12T08:07:49;4.82;;;2.95;;
15132;SDS011;7667;51.232;17.110;2023-08-12T08:10:17;3.50;;;2.70;;
15132;SDS011;7667;51.232;17.110;2023-08-12T08:12:44;2.97;;;2.67;;
15132;SDS011;7667;51.232;17.110;2023-08-12T08:15:12;2.90;;;2.60;;
15132;SDS011;7667;51.232;17.110;2023-08-12T08:17:39;2.88;;;2.47;;
15132;SDS011;7667;51.232;17.110;2023-08-12T08:20:08;4.55;;;2.30;;
15132;SDS011;7667;51.232;17.110;2023-08-12T08:22:37;4.25;;;2.42;;
15132;SDS011;7667;51.232;17.110;2023-08-12T08:25:06;4.20;;;2.15;;
15132;SDS011;7667;51.232;17.110;2023-08-12T08:27:34;4.47;;;2.10;;
15132;SDS011;7667;51.232;17.110;2023-08-12T08:30:02;2.88;;;2.25;;
15132;SDS011;7667;51.232;17.110;2023-08-12T08:32:30;3.13;;;2.13;;
15132;SDS011;7667;51.232;17.110;2023-08-12T08:34:58;3.30;;;2.40;;
15132;SDS011;7667;51.232;17.110;2023-08-12T08:37:26;2.38;;;2.17;;
15132;SDS011;7667;51.232;17.110;2023-08-12T08:39:53;3.75;;;2.30;;
15132;SDS011;7667;51.232;17.110;2023-08-12T08:42:21;3.28;;;2.40;;
15132;SDS011;7667;51.232;17.110;2023-08-12T08:44:51;5.47;;;2.45;;
15132;SDS011;7667;51.232;17.110;2023-08-12T08:47:22;4.32;;;2.25;;
15132;SDS011;7667;51.232;17.110;2023-08-12T08:49:54;5.00;;;2.42;;
15132;SDS011;7667;51.232;17.110;2023-08-12T08:52:24;2.30;;;2.10;;
15132;SDS011;7667;51.232;17.110;2023-08-12T08:54:52;4.63;;;2.28;;
15132;SDS011;7667;51.232;17.110;2023-08-12T08:57:20;4.22;;;2.30;;
15132;SDS011;7667;51.232;17.110;2023-08-12T08:59:53;2.67;;;2.13;;
15132;SDS011;7667;51.232;17.110;2023-08-12T09:02:24;5.15;;;2.10;;
15132;SDS011;7667;51.232;17.110;2023-08-12T09:04:53;2.63;;;1.90;;
15132;SDS011;7667;51.232;17.110;2023-08-12T09:07:21;1.95;;;1.75;;
15132;SDS011;7667;51.232;17.110;2023-08-12T09:09:50;3.58;;;2.10;;
15132;SDS011;7667;51.232;17.110;2023-08-12T09:12:19;2.65;;;2.08;;
15132;SDS011;7667;51.232;17.110;2023-08-12T09:14:48;3.08;;;1.80;;
15132;SDS011;7667;51.232;17.110;2023-08-12T09:17:16;3.30;;;1.85;;
15132;SDS011;7667;51.232;17.110;2023-08-12T09:19:43;2.05;;;1.85;;
15132;SDS011;7667;51.232;17.110;2023-08-12T09:22:11;2.60;;;2.10;;
15132;SDS011;7667;51.232;17.110;2023-08-12T09:24:39;3.45;;;2.10;;
15132;SDS011;7667;51.232;17.110;2023-08-12T09:27:07;2.22;;;2.00;;
15132;SDS011;7667;51.232;17.110;2023-08-12T09:29:35;2.55;;;1.77;;
15132;SDS011;7667;51.232;17.110;2023-08-12T09:32:10;1.70;;;1.60;;
15132;SDS011;7667;51.232;17.110;2023-08-12T09:34:50;2.60;;;2.00;;
15132;SDS011;7667;51.232;17.110;2023-08-12T09:37:20;3.45;;;2.00;;
15132;SDS011;7667;51.232;17.110;2023-08-12T09:39:51;2.72;;;1.73;;
15132;SDS011;7667;51.232;17.110;2023-08-12T09:42:19;2.08;;;1.88;;
15132;SDS011;7667;51.232;17.110;2023-08-12T09:44:46;3.00;;;1.83;;
15132;SDS011;7667;51.232;17.110;2023-08-12T09:47:14;2.13;;;1.92;;
15132;SDS011;7667;51.232;17.110;2023-08-12T09:49:42;2.53;;;1.75;;
15132;SDS011;7667;51.232;17.110;2023-08-12T09:52:09;2.20;;;1.92;;
15132;SDS011;7667;51.232;17.110;2023-08-12T09:54:38;2.80;;;1.70;;
15132;SDS011;7667;51.232;17.110;2023-08-12T09:57:05;1.85;;;1.60;;
15132;SDS011;7667;51.232;17.110;2023-08-12T09:59:38;2.67;;;1.98;;
15132;SDS011;7667;51.232;17.110;2023-08-12T10:02:08;3.05;;;1.80;;
15132;SDS011;7667;51.232;17.110;2023-08-12T10:04:45;2.80;;;1.80;;
15132;SDS011;7667;51.232;17.110;2023-08-12T10:07:17;3.08;;;2.08;;
15132;SDS011;7667;51.232;17.110;2023-08-12T10:09:46;1.98;;;1.70;;
15132;SDS011;7667;51.232;17.110;2023-08-12T10:12:14;3.17;;;1.98;;
15132;SDS011;7667;51.232;17.110;2023-08-12T10:14:45;3.13;;;1.65;;
15132;SDS011;7667;51.232;17.110;2023-08-12T10:17:14;3.85;;;1.65;;
15132;SDS011;7667;51.232;17.110;2023-08-12T10:20:03;2.42;;;1.50;;
15132;SDS011;7667;51.232;17.110;2023-08-12T10:22:34;2.90;;;1.67;;
15132;SDS011;7667;51.232;17.110;2023-08-12T10:25:03;2.30;;;1.63;;
15132;SDS011;7667;51.232;17.110;2023-08-12T10:27:31;3.35;;;1.80;;
15132;SDS011;7667;51.232;17.110;2023-08-12T10:29:59;3.03;;;1.85;;
15132;SDS011;7667;51.232;17.110;2023-08-12T10:32:30;3.40;;;1.80;;
15132;SDS011;7667;51.232;17.110;2023-08-12T10:34:59;2.65;;;1.80;;
15132;SDS011;7667;51.232;17.110;2023-08-12T10:37:30;2.75;;;2.00;;
15132;SDS011;7667;51.232;17.110;2023-08-12T10:40:04;4.47;;;2.20;;
15132;SDS011;7667;51.232;17.110;2023-08-12T10:42:47;2.40;;;1.90;;
15132;SDS011;7667;51.232;17.110;2023-08-12T10:45:17;3.97;;;2.30;;
15132;SDS011;7667;51.232;17.110;2023-08-12T10:47:51;3.70;;;2.15;;
15132;SDS011;7667;51.232;17.110;2023-08-12T10:50:39;2.63;;;2.05;;
15132;SDS011;7667;51.232;17.110;2023-08-12T10:53:22;2.20;;;1.85;;
15132;SDS011;7667;51.232;17.110;2023-08-12T10:56:02;2.65;;;2.00;;
15132;SDS011;7667;51.232;17.110;2023-08-12T10:58:35;3.85;;;2.25;;
15132;SDS011;7667;51.232;17.110;2023-08-12T11:01:18;3.17;;;1.90;;
15132;SDS011;7667;51.232;17.110;2023-08-12T11:03:49;3.95;;;2.10;;
15132;SDS011;7667;51.232;17.110;2023-08-12T11:06:18;3.90;;;2.17;;
15132;SDS011;7667;51.232;17.110;2023-08-12T11:08:47;4.07;;;2.10;;
15132;SDS011;7667;51.232;17.110;2023-08-12T11:11:20;3.03;;;2.25;;
15132;SDS011;7667;51.232;17.110;2023-08-12T11:13:54;3.40;;;2.15;;
15132;SDS011;7667;51.232;17.110;2023-08-12T11:16:36;3.50;;;2.15;;
15132;SDS011;7667;51.232;17.110;2023-08-12T11:19:05;2.95;;;2.10;;
15132;SDS011;7667;51.232;17.110;2023-08-12T11:21:35;2.88;;;2.10;;
15132;SDS011;7667;51.232;17.110;2023-08-12T11:24:04;3.85;;;2.00;;
15132;SDS011;7667;51.232;17.110;2023-08-12T11:26:36;2.58;;;1.92;;
15132;SDS011;7667;51.232;17.110;2023-08-12T11:29:09;3.22;;;2.10;;
15132;SDS011;7667;51.232;17.110;2023-08-12T11:31:38;3.22;;;2.08;;
15132;SDS011;7667;51.232;17.110;2023-08-12T11:34:06;4.03;;;1.90;;
15132;SDS011;7667;51.232;17.110;2023-08-12T11:36:34;2.42;;;1.90;;
15132;SDS011;7667;51.232;17.110;2023-08-12T11:39:02;1.88;;;1.70;;
15132;SDS011;7667;51.232;17.110;2023-08-12T11:41:30;2.05;;;1.70;;
15132;SDS011;7667;51.232;17.110;2023-08-12T11:44:01;4.97;;;1.80;;
15132;SDS011;7667;51.232;17.110;2023-08-12T11:46:34;2.75;;;1.60;;
15132;SDS011;7667;51.232;17.110;2023-08-12T11:49:02;4.05;;;1.60;;
15132;SDS011;7667;51.232;17.110;2023-08-12T11:51:30;2.72;;;1.73;;
15132;SDS011;7667;51.232;17.110;2023-08-12T11:53:57;3.20;;;1.80;;
15132;SDS011;7667;51.232;17.110;2023-08-12T11:56:25;2.47;;;1.70;;
15132;SDS011;7667;51.232;17.110;2023-08-12T11:58:53;1.85;;;1.70;;
15132;SDS011;7667;51.232;17.110;2023-08-12T12:01:21;2.03;;;1.63;;
15132;SDS011;7667;51.232;17.110;2023-08-12T12:03:53;2.10;;;1.70;;
15132;SDS011;7667;51.232;17.110;2023-08-12T12:06:29;3.35;;;1.85;;
15132;SDS011;7667;51.232;17.110;2023-08-12T12:09:06;2.00;;;1.67;;
15132;SDS011;7667;51.232;17.110;2023-08-12T12:11:37;4.28;;;1.70;;
15132;SDS011;7667;51.232;17.110;2023-08-12T12:14:06;2.28;;;1.65;;
15132;SDS011;7667;51.232;17.110;2023-08-12T12:16:42;3.08;;;1.92;;
15132;SDS011;7667;51.232;17.110;2023-08-12T12:19:15;1.70;;;1.58;;
15132;SDS011;7667;51.232;17.110;2023-08-12T12:21:50;1.67;;;1.50;;
15132;SDS011;7667;51.232;17.110;2023-08-12T12:24:19;2.25;;;1.40;;
15132;SDS011;7667;51.232;17.110;2023-08-12T12:26:47;3.80;;;1.80;;
15132;SDS011;7667;51.232;17.110;2023-08-12T12:29:16;3.33;;;1.60;;
15132;SDS011;7667;51.232;17.110;2023-08-12T12:31:44;2.05;;;1.83;;
15132;SDS011;7667;51.232;17.110;2023-08-12T12:34:11;1.50;;;1.40;;
15132;SDS011;7667;51.232;17.110;2023-08-12T12:36:41;2.53;;;1.48;;
15132;SDS011;7667;51.232;17.110;2023-08-12T12:39:08;3.05;;;1.60;;
15132;SDS011;7667;51.232;17.110;2023-08-12T12:41:36;2.05;;;1.70;;
15132;SDS011;7667;51.232;17.110;2023-08-12T12:44:04;2.35;;;2.00;;
15132;SDS011;7667;51.232;17.110;2023-08-12T12:46:32;2.53;;;1.50;;
15132;SDS011;7667;51.232;17.110;2023-08-12T12:49:00;2.83;;;1.40;;
15132;SDS011;7667;51.232;17.110;2023-08-12T12:51:27;2.30;;;1.65;;
15132;SDS011;7667;51.232;17.110;2023-08-12T12:53:55;2.13;;;1.42;;
15132;SDS011;7667;51.232;17.110;2023-08-12T12:56:23;3.33;;;1.73;;
15132;SDS011;7667;51.232;17.110;2023-08-12T12:58:51;3.72;;;1.70;;
15132;SDS011;7667;51.232;17.110;2023-08-12T13:01:19;2.05;;;1.70;;
15132;SDS011;7667;51.232;17.110;2023-08-12T13:03:46;2.97;;;1.50;;
15132;SDS011;7667;51.232;17.110;2023-08-12T13:06:15;2.13;;;1.60;;
15132;SDS011;7667;51.232;17.110;2023-08-12T13:08:42;2.67;;;1.80;;
15132;SDS011;7667;51.232;17.110;2023-08-12T13:11:10;2.60;;;1.60;;
15132;SDS011;7667;51.232;17.110;2023-08-12T13:13:37;3.20;;;1.55;;
15132;SDS011;7667;51.232;17.110;2023-08-12T13:16:05;4.40;;;1.67;;
15132;SDS011;7667;51.232;17.110;2023-08-12T13:18:34;2.55;;;1.60;;
15132;SDS011;7667;51.232;17.110;2023-08-12T13:21:02;3.75;;;1.58;;
15132;SDS011;7667;51.232;17.110;2023-08-12T13:23:30;2.40;;;1.50;;
15132;SDS011;7667;51.232;17.110;2023-08-12T13:25:57;1.60;;;1.50;;
15132;SDS011;7667;51.232;17.110;2023-08-12T13:28:25;3.22;;;1.65;;
15132;SDS011;7667;51.232;17.110;2023-08-12T13:30:53;2.35;;;1.80;;
15132;SDS011;7667;51.232;17.110;2023-08-12T13:33:20;2.15;;;1.70;;
15132;SDS011;7667;51.232;17.110;2023-08-12T13:35:48;2.33;;;1.45;;
15132;SDS011;7667;51.232;17.110;2023-08-12T13:38:16;2.72;;;1.58;;
15132;SDS011;7667;51.232;17.110;2023-08-12T13:40:43;2.03;;;1.52;;
15132;SDS011;7667;51.232;17.110;2023-08-12T13:43:11;2.63;;;1.50;;
15132;SDS011;7667;51.232;17.110;2023-08-12T13:45:38;2.85;;;2.00;;
15132;SDS011;7667;51.232;17.110;2023-08-12T13:48:06;2.70;;;1.77;;
15132;SDS011;7667;51.232;17.110;2023-08-12T13:50:34;3.17;;;1.63;;
15132;SDS011;7667;51.232;17.110;2023-08-12T13:53:01;2.80;;;1.52;;
15132;SDS011;7667;51.232;17.110;2023-08-12T13:55:29;2.38;;;1.70;;
15132;SDS011;7667;51.232;17.110;2023-08-12T13:57:57;1.67;;;1.58;;
15132;SDS011;7667;51.232;17.110;2023-08-12T14:00:24;2.13;;;1.80;;
15132;SDS011;7667;51.232;17.110;2023-08-12T14:02:52;2.90;;;1.70;;
15132;SDS011;7667;51.232;17.110;2023-08-12T14:05:20;4.32;;;1.60;;
15132;SDS011;7667;51.232;17.110;2023-08-12T14:07:47;2.65;;;1.63;;
15132;SDS011;7667;51.232;17.110;2023-08-12T14:10:15;2.35;;;1.98;;
15132;SDS011;7667;51.232;17.110;2023-08-12T14:12:43;2.95;;;1.98;;
15132;SDS011;7667;51.232;17.110;2023-08-12T14:15:13;3.53;;;1.90;;
15132;SDS011;7667;51.232;17.110;2023-08-12T14:17:42;2.80;;;1.95;;
15132;SDS011;7667;51.232;17.110;2023-08-12T14:20:09;2.55;;;1.85;;
15132;SDS011;7667;51.232;17.110;2023-08-12T14:22:38;2.17;;;1.60;;
15132;SDS011;7667;51.232;17.110;2023-08-12T14:25:06;3.63;;;1.73;;
15132;SDS011;7667;51.232;17.110;2023-08-12T14:27:34;1.85;;;1.70;;
15132;SDS011;7667;51.232;17.110;2023-08-12T14:30:02;1.88;;;1.58;;
15132;SDS011;7667;51.232;17.110;2023-08-12T14:32:30;2.88;;;1.75;;
15132;SDS011;7667;51.232;17.110;2023-08-12T14:34:58;3.03;;;1.90;;
15132;SDS011;7667;51.232;17.110;2023-08-12T14:37:26;2.42;;;1.73;;
15132;SDS011;7667;51.232;17.110;2023-08-12T14:39:54;1.50;;;1.40;;
15132;SDS011;7667;51.232;17.110;2023-08-12T14:42:22;2.25;;;1.80;;
15132;SDS011;7667;51.232;17.110;2023-08-12T14:44:50;3.85;;;1.80;;
15132;SDS011;7667;51.232;17.110;2023-08-12T14:47:18;3.03;;;1.95;;
15132;SDS011;7667;51.232;17.110;2023-08-12T14:49:46;1.70;;;1.55;;
15132;SDS011;7667;51.232;17.110;2023-08-12T14:52:17;1.95;;;1.70;;
15132;SDS011;7667;51.232;17.110;2023-08-12T14:54:48;2.28;;;1.70;;
15132;SDS011;7667;51.232;17.110;2023-08-12T14:57:15;3.25;;;1.60;;
15132;SDS011;7667;51.232;17.110;2023-08-12T14:59:43;1.88;;;1.60;;
15132;SDS011;7667;51.232;17.110;2023-08-12T15:02:13;2.35;;;1.77;;
15132;SDS011;7667;51.232;17.110;2023-08-12T15:04:40;2.90;;;1.52;;